Time;durP1;ratioP1;P1;durP2;ratioP2;P2;SDS_P1;SDS_P2;PMS_P1;PMS_P2;Temp;Humidity;BMP_temperature;BMP_pressure;BME280_temperature;BME280_humidity;BME280_pressure;Samples;Min_cycle;Max_cycle;Signal;HPM_P1;HPM_P2
2022/08/26 00:00:39;;;;;;;32.00;27.92;;;22.40;99.90;;;;;;5054117;28;20099;-67
2022/08/26 00:03:05;;;;;;;33.03;27.95;;;22.30;99.90;;;;;;5054319;28;20114;-67
2022/08/26 00:05:30;;;;;;;35.10;27.88;;;22.30;99.90;;;;;;5054141;28;20040;-67
2022/08/26 00:07:56;;;;;;;37.17;31.23;;;22.40;99.90;;;;;;5053940;28;20095;-67
2022/08/26 00:10:22;;;;;;;39.05;31.88;;;22.20;99.90;;;;;;5053768;28;20120;-67
2022/08/26 00:12:48;;;;;;;31.98;28.40;;;22.30;99.90;;;;;;5053896;28;20037;-67
2022/08/26 00:15:17;;;;;;;37.15;28.90;;;22.10;99.90;;;;;;5054156;28;20041;-67
2022/08/26 00:17:42;;;;;;;38.25;29.73;;;22.30;99.90;;;;;;5053774;28;20044;-68
2022/08/26 00:20:10;;;;;;;38.03;31.90;;;22.30;99.90;;;;;;5053651;28;20039;-67
2022/08/26 00:22:36;;;;;;;37.95;30.60;;;22.30;99.90;;;;;;5053854;28;20111;-67
2022/08/26 00:25:03;;;;;;;36.38;30.55;;;22.10;99.90;;;;;;5052502;28;20564;-67
2022/08/26 00:27:32;;;;;;;41.33;29.45;;;22.10;99.90;;;;;;5053559;28;20080;-67
2022/08/26 00:29:59;;;;;;;32.50;28.35;;;22.20;99.90;;;;;;5053395;28;20395;-67
2022/08/26 00:32:24;;;;;;;39.00;30.13;;;22.00;99.90;;;;;;5052036;28;20037;-67
2022/08/26 00:34:50;;;;;;;31.30;27.75;;;22.10;99.90;;;;;;5053676;28;20082;-67
2022/08/26 00:37:16;;;;;;;36.75;29.38;;;22.10;99.90;;;;;;5053468;28;20116;-67
2022/08/26 00:39:42;;;;;;;32.75;29.38;;;21.90;99.90;;;;;;5053221;28;20048;-67
2022/08/26 00:42:07;;;;;;;33.03;29.55;;;22.00;99.90;;;;;;5053395;28;20406;-67
2022/08/26 00:44:33;;;;;;;35.28;28.48;;;21.80;99.90;;;;;;5053638;28;20051;-67
2022/08/26 00:47:03;;;;;;;33.95;29.20;;;21.80;99.90;;;;;;5053390;28;20033;-67
2022/08/26 00:49:40;;;;;;;32.50;28.95;;;22.00;99.90;;;;;;5052990;28;20514;-67
2022/08/26 00:52:14;;;;;;;32.47;27.75;;;21.90;99.90;;;;;;5053249;28;20045;-67
2022/08/26 00:54:51;;;;;;;35.70;28.23;;;22.00;99.90;;;;;;5053350;28;20091;-67
2022/08/26 00:57:18;;;;;;;38.67;27.42;;;21.70;99.90;;;;;;5053233;28;20087;-67
2022/08/26 00:59:46;;;;;;;32.22;26.33;;;21.70;99.90;;;;;;5052930;28;20082;-67
2022/08/26 01:02:12;;;;;;;33.28;26.25;;;21.60;99.90;;;;;;5053101;28;20503;-67
2022/08/26 01:04:39;;;;;;;39.33;26.67;;;21.60;99.90;;;;;;5053064;28;20092;-67
2022/08/26 01:07:05;;;;;;;37.38;28.85;;;21.50;99.90;;;;;;5052676;28;20032;-67
2022/08/26 01:09:31;;;;;;;39.08;27.30;;;21.60;99.90;;;;;;5052830;28;20552;-67
2022/08/26 01:12:00;;;;;;;36.53;27.70;;;21.70;99.90;;;;;;5052843;28;20661;-67
2022/08/26 01:14:31;;;;;;;36.10;28.20;;;21.70;99.90;;;;;;5052781;28;20048;-67
2022/08/26 01:16:57;;;;;;;39.20;29.20;;;21.70;99.90;;;;;;5052853;28;20029;-67
2022/08/26 01:19:27;;;;;;;44.38;30.23;;;21.40;99.90;;;;;;5052516;28;20036;-67
2022/08/26 01:22:00;;;;;;;37.65;28.00;;;21.70;99.90;;;;;;5052952;28;20048;-67
2022/08/26 01:24:29;;;;;;;43.85;29.00;;;21.50;99.90;;;;;;5052759;28;20151;-67
2022/08/26 01:27:03;;;;;;;40.25;28.15;;;21.40;99.90;;;;;;5052625;28;20040;-67
2022/08/26 01:29:31;;;;;;;38.47;27.65;;;21.30;99.90;;;;;;5051027;28;20077;-67
2022/08/26 01:31:57;;;;;;;38.88;27.50;;;21.50;99.90;;;;;;5052417;28;20116;-67
2022/08/26 01:34:26;;;;;;;38.65;28.48;;;21.50;99.90;;;;;;5052424;28;20218;-67
2022/08/26 01:37:04;;;;;;;40.20;27.30;;;21.60;99.90;;;;;;5052804;28;20049;-67
2022/08/26 01:39:31;;;;;;;41.22;28.27;;;21.30;99.90;;;;;;5052509;28;20044;-67
2022/08/26 01:41:59;;;;;;;41.30;28.35;;;21.50;99.90;;;;;;5052582;28;20043;-67
2022/08/26 01:44:29;;;;;;;40.08;28.38;;;21.50;99.90;;;;;;5051653;28;20079;-67
2022/08/26 01:46:57;;;;;;;47.45;29.95;;;21.60;99.90;;;;;;5052113;28;20387;-67
2022/08/26 01:49:25;;;;;;;39.10;28.30;;;21.20;99.90;;;;;;5052037;28;20037;-67
2022/08/26 01:51:53;;;;;;;39.13;27.35;;;21.40;99.90;;;;;;5052267;28;20045;-67
2022/08/26 01:54:19;;;;;;;43.70;30.30;;;21.40;99.90;;;;;;5052148;28;20076;-67
2022/08/26 01:56:45;;;;;;;41.72;28.85;;;21.50;99.90;;;;;;5052099;28;20036;-67
2022/08/26 01:59:14;;;;;;;42.00;28.40;;;21.10;99.90;;;;;;5051904;28;20036;-67
2022/08/26 02:01:40;;;;;;;37.30;28.25;;;21.50;99.90;;;;;;5052232;28;20044;-67
2022/08/26 02:04:24;;;;;;;43.00;29.88;;;21.40;99.90;;;;;;5052079;28;20041;-67
2022/08/26 02:06:50;;;;;;;44.67;28.50;;;21.10;99.90;;;;;;5050491;28;20507;-67
2022/08/26 02:09:18;;;;;;;43.33;27.33;;;21.00;99.90;;;;;;5050513;28;20075;-67
2022/08/26 02:11:44;;;;;;;44.92;29.50;;;21.30;99.90;;;;;;5051846;28;20122;-67
2022/08/26 02:14:14;;;;;;;40.88;26.17;;;21.00;99.90;;;;;;5051868;28;20064;-67
2022/08/26 02:16:42;;;;;;;42.78;29.95;;;21.00;99.90;;;;;;5051841;28;20513;-67
2022/08/26 02:19:12;;;;;;;39.78;29.45;;;21.20;99.90;;;;;;5051714;28;20045;-67
2022/08/26 02:21:39;;;;;;;41.30;27.80;;;21.30;99.90;;;;;;5051774;28;20033;-67
2022/08/26 02:24:19;;;;;;;40.38;28.35;;;21.10;99.90;;;;;;5050609;28;20076;-67
2022/08/26 02:26:46;;;;;;;44.80;28.60;;;21.20;99.90;;;;;;5051802;28;20041;-67
2022/08/26 02:29:25;;;;;;;42.72;29.60;;;21.30;99.90;;;;;;5051641;28;20045;-67
2022/08/26 02:31:54;;;;;;;41.83;27.75;;;20.90;99.90;;;;;;5051721;28;20045;-67
2022/08/26 02:34:25;;;;;;;43.15;28.42;;;21.00;99.90;;;;;;5051323;28;20086;-67
2022/08/26 02:36:51;;;;;;;44.00;28.98;;;21.20;99.90;;;;;;5051649;28;20037;-67
2022/08/26 02:39:17;;;;;;;47.38;29.25;;;20.90;99.90;;;;;;5051432;28;20179;-67
2022/08/26 02:41:44;;;;;;;42.47;27.58;;;21.30;99.90;;;;;;5051651;28;20060;-67
2022/08/26 02:44:10;;;;;;;48.17;28.45;;;21.20;99.90;;;;;;5050604;28;20067;-67
2022/08/26 02:46:36;;;;;;;46.58;27.27;;;21.10;99.90;;;;;;5048178;28;20444;-67
2022/08/26 02:49:02;;;;;;;41.80;28.38;;;21.10;99.90;;;;;;5051078;28;20048;-67
2022/08/26 02:51:28;;;;;;;39.00;27.20;;;21.00;99.90;;;;;;5051355;28;20403;-67
2022/08/26 02:53:54;;;;;;;38.15;26.60;;;21.00;99.90;;;;;;5051481;28;20037;-67
2022/08/26 02:56:19;;;;;;;46.70;28.42;;;21.00;99.90;;;;;;5053127;28;20574;-67
2022/08/26 02:58:45;;;;;;;42.65;28.58;;;21.20;99.90;;;;;;5054465;28;20039;-67
2022/08/26 03:01:25;;;;;;;39.13;27.38;;;20.80;99.90;;;;;;5055068;28;20479;-67
2022/08/26 03:03:52;;;;;;;46.30;28.17;;;21.20;99.90;;;;;;5055510;28;20094;-67
2022/08/26 03:06:18;;;;;;;47.55;29.88;;;20.90;99.90;;;;;;5055054;28;20636;-67
2022/08/26 03:08:44;;;;;;;44.42;29.50;;;21.20;99.90;;;;;;5055400;28;20045;-67
2022/08/26 03:11:10;;;;;;;43.85;27.20;;;21.00;99.90;;;;;;5055014;28;20037;-67
2022/08/26 03:13:36;;;;;;;40.50;26.80;;;20.90;99.90;;;;;;5037233;28;20040;-67
2022/08/26 03:16:02;;;;;;;45.42;26.83;;;20.80;99.90;;;;;;5054940;28;20045;-67
2022/08/26 03:18:28;;;;;;;42.65;28.13;;;20.80;99.90;;;;;;5055274;28;20555;-67
2022/08/26 03:20:54;;;;;;;41.45;27.20;;;20.80;99.90;;;;;;5054819;28;20044;-67
2022/08/26 03:23:19;;;;;;;39.45;26.90;;;20.90;99.90;;;;;;5055113;28;20649;-67
2022/08/26 03:25:52;;;;;;;44.45;26.52;;;21.20;99.90;;;;;;5053578;28;20422;-67
2022/08/26 03:28:18;;;;;;;;;;;21.10;99.90;;;;;;5055298;28;20086;-67
2022/08/26 03:30:44;;;;;;;44.78;26.17;;;21.00;99.90;;;;;;5053300;28;20007;-67
2022/08/26 03:33:11;;;;;;;42.45;25.05;;;21.10;99.90;;;;;;5054687;28;20033;-67
2022/08/26 03:35:39;;;;;;;43.40;25.60;;;20.80;99.90;;;;;;5054848;28;20119;-68
2022/08/26 03:38:07;;;;;;;44.63;26.15;;;21.10;99.90;;;;;;5054757;28;20048;-67
2022/08/26 03:40:33;;;;;;;39.25;25.33;;;20.90;99.90;;;;;;5054480;28;20110;-68
2022/08/26 03:43:00;;;;;;;41.03;24.23;;;21.30;99.90;;;;;;5036663;28;20041;-67
2022/08/26 03:45:26;;;;;;;39.63;24.85;;;21.10;99.90;;;;;;5054506;28;20045;-67
2022/08/26 03:47:52;;;;;;;39.80;24.08;;;21.10;99.90;;;;;;5054335;28;20514;-67
2022/08/26 03:50:19;;;;;;;40.03;24.20;;;21.10;99.90;;;;;;5054330;28;20041;-67
2022/08/26 03:52:45;;;;;;;34.00;23.17;;;21.10;99.90;;;;;;5053111;28;20045;-67
2022/08/26 03:55:12;;;;;;;41.08;24.25;;;21.10;99.90;;;;;;5054395;28;20037;-67
2022/08/26 03:57:38;;;;;;;31.98;20.27;;;21.10;99.90;;;;;;5054232;28;20068;-67
2022/08/26 04:00:10;;;;;;;31.35;21.38;;;21.10;99.90;;;;;;5054235;28;20083;-67
2022/08/26 04:02:36;;;;;;;36.67;19.85;;;20.90;99.90;;;;;;5053177;28;20051;-67
2022/08/26 04:05:02;;;;;;;33.55;20.38;;;21.10;99.90;;;;;;5054246;28;20041;-67
2022/08/26 04:07:28;;;;;;;38.20;21.13;;;21.30;99.90;;;;;;5074615;22;20052;-68
2022/08/26 04:09:57;;;;;;;38.05;20.33;;;21.10;99.90;;;;;;5053428;28;20033;-66
2022/08/26 04:12:24;;;;;;;35.78;21.58;;;21.10;99.90;;;;;;5053919;28;20458;-66
2022/08/26 04:14:51;;;;;;;42.63;22.65;;;20.80;99.90;;;;;;5054069;28;20052;-66
2022/08/26 04:17:17;;;;;;;38.08;21.35;;;21.10;99.90;;;;;;5053566;28;20041;-66
2022/08/26 04:19:43;;;;;;;33.67;20.27;;;21.20;99.90;;;;;;5053529;28;20033;-66
2022/08/26 04:22:08;;;;;;;33.53;20.17;;;21.20;99.90;;;;;;5053861;28;20128;-66
2022/08/26 04:24:34;;;;;;;36.08;20.95;;;20.80;99.90;;;;;;5053623;28;20056;-69
2022/08/26 04:27:02;;;;;;;30.35;19.13;;;21.00;99.90;;;;;;5053640;28;20044;-69
2022/08/26 04:29:29;;;;;;;38.05;19.52;;;20.80;99.90;;;;;;5054266;28;20052;-65
2022/08/26 04:31:56;;;;;;;32.33;19.23;;;21.20;99.90;;;;;;5053800;28;20075;-65
2022/08/26 04:34:24;;;;;;;31.58;19.58;;;21.00;99.90;;;;;;5052242;28;20071;-65
2022/08/26 04:36:50;;;;;;;30.58;19.02;;;20.80;99.90;;;;;;5053556;28;20402;-65
2022/08/26 04:39:17;;;;;;;35.10;17.95;;;20.70;99.90;;;;;;5053148;28;20069;-65
2022/08/26 04:41:43;;;;;;;34.15;19.27;;;21.00;99.90;;;;;;5052183;28;20048;-65
2022/08/26 04:44:09;;;;;;;33.20;19.38;;;21.10;99.90;;;;;;5053534;28;20047;-65
2022/08/26 04:46:35;;;;;;;30.13;17.42;;;21.00;99.90;;;;;;5053404;28;20119;-65
2022/08/26 04:49:02;;;;;;;27.08;17.40;;;21.00;99.90;;;;;;5053384;28;20041;-65
2022/08/26 04:51:27;;;;;;;33.53;17.83;;;20.70;99.90;;;;;;5051762;28;20076;-65
2022/08/26 04:53:57;;;;;;;34.03;18.85;;;20.80;99.90;;;;;;5053099;28;20076;-64
2022/08/26 04:56:28;;;;;;;31.30;17.30;;;21.10;99.90;;;;;;5053277;28;20112;-64
2022/08/26 04:58:54;;;;;;;30.45;17.13;;;21.10;99.90;;;;;;5053024;28;20037;-65
2022/08/26 05:01:20;;;;;;;37.22;16.92;;;20.70;99.90;;;;;;5052908;28;20044;-65
2022/08/26 05:03:47;;;;;;;33.50;17.83;;;20.70;99.90;;;;;;5053122;28;20124;-65
2022/08/26 05:06:13;;;;;;;26.63;17.13;;;21.00;99.90;;;;;;5052857;28;20071;-65
2022/08/26 05:08:38;;;;;;;25.85;18.25;;;21.00;99.90;;;;;;5052954;28;20120;-65
2022/08/26 05:11:05;;;;;;;29.15;17.98;;;21.00;99.90;;;;;;5052826;28;20159;-64
2022/08/26 05:13:32;;;;;;;29.88;17.45;;;21.20;99.90;;;;;;5052946;28;20033;-65
2022/08/26 05:16:02;;;;;;;25.38;15.95;;;21.20;99.90;;;;;;5051483;28;20041;-65
2022/08/26 05:18:29;;;;;;;36.30;18.73;;;21.10;99.90;;;;;;5052730;28;20041;-65
2022/08/26 05:20:54;;;;;;;29.33;17.63;;;20.80;99.90;;;;;;5051592;28;20087;-65
2022/08/26 05:23:21;;;;;;;31.90;19.63;;;20.90;99.90;;;;;;5052585;28;20041;-65
2022/08/26 05:25:51;;;;;;;25.55;18.45;;;20.90;99.90;;;;;;5052776;28;20071;-65
2022/08/26 05:28:18;;;;;;;29.08;17.85;;;20.60;99.90;;;;;;5052658;28;20044;-65
2022/08/26 05:30:44;;;;;;;34.25;20.13;;;20.60;99.90;;;;;;5052325;28;20115;-64
2022/08/26 05:33:10;;;;;;;28.33;18.33;;;20.70;99.90;;;;;;5052410;28;20486;-64
2022/08/26 05:35:37;;;;;;;30.70;19.77;;;21.00;99.90;;;;;;5052385;28;20542;-65
2022/08/26 05:38:06;;;;;;;28.77;18.27;;;20.70;99.90;;;;;;5052294;28;20433;-65
2022/08/26 05:40:39;;;;;;;32.00;19.23;;;20.90;99.90;;;;;;5052076;28;20495;-65
2022/08/26 05:43:09;;;;;;;35.45;20.15;;;20.80;99.90;;;;;;5052517;28;20120;-65
2022/08/26 05:45:39;;;;;;;37.08;20.58;;;20.80;99.90;;;;;;5052308;28;20049;-65
2022/08/26 05:48:08;;;;;;;34.63;21.70;;;20.70;99.90;;;;;;5052137;28;20041;-65
2022/08/26 05:50:45;;;;;;;31.40;20.67;;;20.80;99.90;;;;;;5052137;28;20111;-65
2022/08/26 05:53:14;;;;;;;38.88;22.02;;;21.00;99.90;;;;;;5052190;28;20495;-64
2022/08/26 05:55:51;;;;;;;33.67;19.45;;;21.00;99.90;;;;;;5052086;28;20048;-65
2022/08/26 05:58:19;;;;;;;35.22;20.30;;;20.80;99.90;;;;;;5052050;28;20119;-65
2022/08/26 06:00:54;;;;;;;36.13;20.23;;;20.90;99.90;;;;;;5051608;28;20040;-65
2022/08/26 06:03:20;;;;;;;33.70;19.15;;;20.70;99.90;;;;;;5052130;28;20044;-64
2022/08/26 06:05:45;;;;;;;29.88;20.83;;;20.60;99.90;;;;;;5050680;28;20495;-64
2022/08/26 06:08:12;;;;;;;44.30;21.98;;;20.90;99.90;;;;;;5051713;28;20192;-65
2022/08/26 06:10:54;;;;;;;32.88;20.60;;;20.80;99.90;;;;;;5051652;28;20052;-65
2022/08/26 06:13:25;;;;;;;35.47;20.83;;;21.00;99.90;;;;;;5051811;28;20128;-65
2022/08/26 06:15:51;;;;;;;30.92;19.48;;;20.90;99.90;;;;;;5051672;28;20403;-65
2022/08/26 06:18:21;;;;;;;28.73;18.92;;;20.50;99.90;;;;;;5051891;28;20033;-65
2022/08/26 06:20:48;;;;;;;28.38;16.38;;;20.50;99.90;;;;;;5051567;28;20051;-64
2022/08/26 06:26:01;;;;;;;25.45;16.42;;;20.90;99.90;;;;;;5051856;28;20056;-65
2022/08/26 06:28:26;;;;;;;30.55;16.42;;;20.90;99.90;;;;;;5051691;28;20041;-64
2022/08/26 06:30:54;;;;;;;28.75;18.27;;;20.80;99.90;;;;;;5051126;28;20084;-66
2022/08/26 06:33:21;;;;;;;31.35;16.73;;;20.80;99.90;;;;;;5051511;28;20045;-66
2022/08/26 06:35:47;;;;;;;28.38;17.33;;;21.10;99.90;;;;;;5051520;28;20048;-65
2022/08/26 06:38:14;;;;;;;27.75;16.52;;;21.10;99.90;;;;;;5051511;28;20116;-65
2022/08/26 06:40:41;;;;;;;28.40;16.50;;;21.20;99.90;;;;;;5051399;28;20052;-65
2022/08/26 06:43:09;;;;;;;29.98;16.45;;;20.90;99.90;;;;;;5050503;28;20044;-65
2022/08/26 06:45:34;;;;;;;25.45;15.80;;;20.90;99.90;;;;;;5051624;28;20167;-66
2022/08/26 06:48:00;;;;;;;26.10;14.93;;;20.70;99.90;;;;;;5051422;28;20041;-66
2022/08/26 06:50:25;;;;;;;25.42;14.23;;;21.00;99.90;;;;;;5051047;28;20124;-65
2022/08/26 06:52:52;;;;;;;25.15;15.90;;;21.00;99.90;;;;;;5051518;28;20071;-65
2022/08/26 06:55:18;;;;;;;27.95;14.15;;;20.90;99.90;;;;;;5051349;28;20499;-68
2022/08/26 06:57:44;;;;;;;22.92;13.75;;;21.00;99.90;;;;;;5051198;28;20491;-66
2022/08/26 07:00:10;;;;;;;23.08;14.25;;;21.00;99.90;;;;;;5051072;28;20052;-67
2022/08/26 07:02:36;;;;;;;30.83;14.27;;;21.10;99.90;;;;;;5051312;28;20045;-66
2022/08/26 07:05:03;;;;;;;27.58;14.63;;;21.40;99.90;;;;;;5051319;28;20568;-66
2022/08/26 07:07:28;;;;;;;27.23;14.90;;;21.10;99.90;;;;;;5051208;28;20068;-66
2022/08/26 07:09:54;;;;;;;21.33;12.25;;;21.30;99.90;;;;;;5051176;28;20487;-66
2022/08/26 07:12:20;;;;;;;22.05;12.85;;;21.30;99.90;;;;;;5051285;28;20041;-66
2022/08/26 07:14:45;;;;;;;22.42;13.98;;;21.30;99.90;;;;;;5051278;28;20037;-66
2022/08/26 07:17:11;;;;;;;24.30;13.27;;;21.50;99.90;;;;;;5051236;28;20490;-66
2022/08/26 07:19:36;;;;;;;23.52;12.48;;;21.20;99.90;;;;;;5050873;28;20033;-66
2022/08/26 07:22:04;;;;;;;25.70;12.05;;;21.30;99.90;;;;;;5051372;28;20036;-66
2022/08/26 07:24:34;;;;;;;22.75;12.70;;;21.40;99.90;;;;;;5051531;28;20448;-66
2022/08/26 07:27:02;;;;;;;30.42;12.63;;;21.10;99.90;;;;;;5051201;28;20037;-65
2022/08/26 07:29:28;;;;;;;26.70;12.95;;;21.40;99.90;;;;;;5050905;28;20101;-67
2022/08/26 07:31:54;;;;;;;29.20;13.85;;;21.50;99.90;;;;;;5051261;28;20060;-67
2022/08/26 07:34:21;;;;;;;27.02;13.48;;;21.20;99.90;;;;;;5049802;28;20029;-66
2022/08/26 07:36:47;;;;;;;25.60;13.50;;;21.00;99.90;;;;;;5051283;28;20091;-66
2022/08/26 07:39:13;;;;;;;22.45;12.93;;;21.10;99.90;;;;;;5050884;28;20041;-68
2022/08/26 07:41:38;;;;;;;21.48;12.48;;;21.40;99.90;;;;;;5051097;28;20063;-66
2022/08/26 07:44:04;;;;;;;24.17;12.40;;;21.10;99.90;;;;;;5053821;28;20037;-66
2022/08/26 07:46:30;;;;;;;17.98;12.00;;;21.20;99.90;;;;;;5054620;28;20044;-66
2022/08/26 07:48:56;;;;;;;26.70;13.10;;;21.20;99.90;;;;;;5054415;28;20040;-65
2022/08/26 07:51:22;;;;;;;25.98;11.20;;;21.20;99.90;;;;;;5054431;28;20044;-66
2022/08/26 07:53:48;;;;;;;22.08;10.60;;;21.50;99.90;;;;;;5053109;28;20060;-66
2022/08/26 07:56:14;;;;;;;20.33;10.95;;;21.70;99.90;;;;;;5054390;28;20101;-70
2022/08/26 07:58:40;;;;;;;21.55;10.00;;;21.70;99.90;;;;;;5054534;28;20134;-66
2022/08/26 08:01:06;;;;;;;19.35;10.20;;;21.50;99.90;;;;;;5054112;28;20402;-66
2022/08/26 08:03:32;;;;;;;20.65;10.18;;;21.50;99.90;;;;;;5054158;28;20045;-67
2022/08/26 08:05:57;;;;;;;19.60;9.52;;;21.40;99.90;;;;;;5054296;28;20045;-66
2022/08/26 08:08:23;;;;;;;15.45;8.40;;;21.70;99.90;;;;;;5054395;28;20123;-66
2022/08/26 08:10:49;;;;;;;22.35;8.57;;;21.70;99.90;;;;;;5052547;28;20095;-65
2022/08/26 08:13:14;;;;;;;13.00;7.40;;;21.70;99.90;;;;;;5052797;28;20040;-66
2022/08/26 08:15:40;;;;;;;18.15;8.43;;;21.40;99.90;;;;;;5053525;28;20036;-65
2022/08/26 08:18:06;;;;;;;15.50;8.10;;;21.20;99.90;;;;;;5052897;28;20033;-66
2022/08/26 08:20:33;;;;;;;17.27;8.98;;;21.20;99.90;;;;;;5053196;28;20037;-66
2022/08/26 08:23:02;;;;;;;14.27;7.88;;;21.60;99.90;;;;;;5053638;28;20037;-66
2022/08/26 08:25:28;;;;;;;16.45;7.20;;;21.50;99.90;;;;;;5053470;28;20079;-65
2022/08/26 08:27:54;;;;;;;10.68;6.43;;;21.40;99.90;;;;;;5053391;28;20025;-66
2022/08/26 08:30:21;;;;;;;13.82;6.63;;;21.30;99.90;;;;;;5053173;28;20446;-66
2022/08/26 08:32:46;;;;;;;15.20;6.68;;;21.30;99.90;;;;;;5053583;28;20101;-66
2022/08/26 08:35:14;;;;;;;11.18;5.25;;;21.30;99.90;;;;;;5053694;28;20036;-66
2022/08/26 08:37:40;;;;;;;14.63;6.63;;;21.70;99.90;;;;;;5053673;28;20205;-66
2022/08/26 08:40:07;;;;;;;11.00;5.57;;;21.50;99.90;;;;;;5052134;28;20080;-66
2022/08/26 08:42:44;;;;;;;12.98;5.50;;;21.50;99.90;;;;;;5053538;28;20041;-65
2022/08/26 08:45:35;;;;;;;9.27;4.63;;;21.70;99.90;;;;;;5053334;28;20130;-66
2022/08/26 08:48:17;;;;;;;12.88;5.70;;;21.70;99.90;;;;;;5053509;28;20048;-66
2022/08/26 08:50:47;;;;;;;10.13;5.00;;;21.80;99.90;;;;;;5053202;28;20041;-66
2022/08/26 08:53:36;;;;;;;7.35;3.65;;;21.90;99.90;;;;;;5053129;28;20041;-67
2022/08/26 08:56:30;;;;;;;12.80;4.60;;;22.10;99.90;;;;;;5053325;28;20072;-66
2022/08/26 08:59:04;;;;;;;7.35;3.67;;;21.90;99.90;;;;;;5053338;28;20059;-68
2022/08/26 09:01:51;;;;;;;13.88;4.25;;;21.90;99.90;;;;;;5052985;28;20055;-66
2022/08/26 09:04:40;;;;;;;12.15;3.92;;;22.20;99.90;;;;;;5053385;28;20068;-67
2022/08/26 09:07:11;;;;;;;6.75;3.42;;;22.10;99.90;;;;;;5053132;28;20049;-67
2022/08/26 09:09:40;;;;;;;8.48;3.65;;;22.00;99.90;;;;;;5052875;28;20517;-66
2022/08/26 09:12:14;;;;;;;9.35;3.10;;;22.20;99.90;;;;;;5052897;28;20037;-66
2022/08/26 09:14:40;;;;;;;13.85;4.78;;;22.00;99.90;;;;;;5051736;28;20095;-67
2022/08/26 09:17:30;;;;;;;9.07;2.78;;;21.90;99.90;;;;;;5053084;28;20041;-66
2022/08/26 09:20:03;;;;;;;10.10;3.28;;;22.00;99.90;;;;;;5052003;28;20475;-66
2022/08/26 09:22:35;;;;;;;11.75;3.05;;;22.00;99.90;;;;;;5052319;28;20033;-66
2022/08/26 09:25:03;;;;;;;9.80;2.70;;;21.80;99.90;;;;;;5051406;28;20047;-66
2022/08/26 09:27:58;;;;;;;7.53;2.90;;;22.00;99.90;;;;;;5051669;28;20044;-66
2022/08/26 09:30:26;;;;;;;10.55;3.45;;;21.70;99.90;;;;;;5038678;28;20047;-66
2022/08/26 09:33:04;;;;;;;12.00;3.05;;;21.90;99.90;;;;;;5052131;28;20044;-66
2022/08/26 09:35:34;;;;;;;16.40;3.85;;;21.90;99.90;;;;;;5052509;28;20443;-66
2022/08/26 09:38:00;;;;;;;14.40;3.45;;;21.90;99.90;;;;;;5052355;28;20499;-66
2022/08/26 09:40:28;;;;;;;14.23;4.32;;;21.80;99.90;;;;;;5051901;28;20040;-66
2022/08/26 09:43:15;;;;;;;9.95;3.00;;;21.70;99.90;;;;;;5051644;28;20033;-66
2022/08/26 09:45:53;;;;;;;7.70;3.05;;;21.60;99.90;;;;;;5050565;28;20368;-65
2022/08/26 09:48:36;;;;;;;10.05;3.55;;;21.50;99.90;;;;;;5051825;28;20494;-65
2022/08/26 09:51:25;;;;;;;7.55;2.97;;;21.70;99.90;;;;;;5048961;28;20029;-65
2022/08/26 09:53:56;;;;;;;7.85;2.63;;;21.60;99.90;;;;;;5050140;28;20049;-66
2022/08/26 09:56:25;;;;;;;5.68;2.50;;;21.50;99.90;;;;;;5052088;28;20112;-66
2022/08/26 09:58:51;;;;;;;13.13;3.20;;;21.30;99.90;;;;;;5051265;28;20044;-66
2022/08/26 10:01:34;;;;;;;8.52;2.95;;;21.40;99.90;;;;;;5051186;28;20510;-65
2022/08/26 10:04:11;;;;;;;9.07;2.63;;;21.30;99.90;;;;;;5051561;28;20041;-66
2022/08/26 10:06:52;;;;;;;10.93;3.22;;;21.60;99.90;;;;;;5051032;28;20068;-68
2022/08/26 10:09:18;;;;;;;13.15;3.67;;;21.50;99.90;;;;;;5050906;28;20048;-68
2022/08/26 10:11:59;;;;;;;12.13;3.00;;;21.60;99.90;;;;;;5051652;28;20036;-68
2022/08/26 10:14:32;;;;;;;9.77;3.30;;;21.70;99.90;;;;;;5051796;28;20041;-67
2022/08/26 10:17:03;;;;;;;9.68;2.63;;;21.60;99.90;;;;;;5051719;28;20041;-68
2022/08/26 10:19:46;;;;;;;8.10;2.88;;;21.80;99.90;;;;;;5051694;28;20033;-68
2022/08/26 10:22:22;;;;;;;11.77;3.55;;;21.80;99.90;;;;;;5051897;28;20041;-68
2022/08/26 10:24:52;;;;;;;12.43;3.67;;;21.80;99.90;;;;;;5051102;28;20037;-68
2022/08/26 10:27:29;;;;;;;9.80;3.63;;;21.80;99.90;;;;;;5047437;28;20059;-68
2022/08/26 10:30:03;;;;;;;7.43;3.10;;;21.80;99.90;;;;;;5051110;28;20044;-67
2022/08/26 10:32:36;;;;;;;6.03;2.97;;;21.70;99.90;;;;;;5051760;28;20041;-68
2022/08/26 10:35:05;;;;;;;6.28;2.78;;;21.80;99.90;;;;;;5051503;28;20547;-68
2022/08/26 10:37:38;;;;;;;7.90;3.45;;;22.00;99.90;;;;;;5051625;28;20044;-68
2022/08/26 10:40:13;;;;;;;8.35;3.38;;;22.10;99.90;;;;;;5050296;28;20047;-68
2022/08/26 10:42:55;;;;;;;9.60;2.80;;;22.00;99.90;;;;;;5051683;28;20496;-69
2022/08/26 10:45:25;;;;;;;9.30;2.95;;;22.00;99.90;;;;;;5051568;28;20086;-68
2022/08/26 10:47:56;;;;;;;6.68;3.25;;;22.20;99.90;;;;;;5051463;28;20060;-68
2022/08/26 10:50:29;;;;;;;8.77;3.10;;;21.90;99.90;;;;;;5051317;28;20132;-69
2022/08/26 10:52:57;;;;;;;;;;;22.10;99.90;;;;;;5052108;28;20174;-68
2022/08/26 10:56:04;;;;;;;12.45;3.20;;;21.90;99.90;;;;;;5051596;28;19917;-68
2022/08/26 10:58:48;;;;;;;6.20;3.00;;;21.60;99.90;;;;;;5030388;28;20056;-68
2022/08/26 11:04:19;;;;;;;8.88;3.13;;;21.50;99.90;;;;;;5048492;28;20084;-68
2022/08/26 11:06:45;;;;;;;13.23;3.40;;;21.60;99.90;;;;;;5048062;28;20387;-67
2022/08/26 11:09:31;;;;;;;6.43;3.03;;;21.70;99.90;;;;;;5050864;28;20068;-68
2022/08/26 11:11:57;;;;;;;9.10;3.33;;;21.60;99.90;;;;;;5050318;28;20041;-68
2022/08/26 11:14:23;;;;;;;16.15;4.65;;;21.70;99.90;;;;;;5050545;28;20393;-68
2022/08/26 11:16:51;;;;;;;9.18;3.97;;;21.70;99.90;;;;;;5050780;28;20036;-68
2022/08/26 11:19:29;;;;;;;6.95;3.63;;;21.70;99.90;;;;;;5053750;28;20075;-68
2022/08/26 11:22:25;;;;;;;11.02;3.92;;;21.60;99.90;;;;;;5055102;28;20144;-67
2022/08/26 11:24:54;;;;;;;6.35;2.65;;;21.50;99.90;;;;;;5055026;28;20048;-68
2022/08/26 11:27:25;;;;;;;7.50;3.85;;;21.40;99.90;;;;;;5054920;28;20057;-68
2022/08/26 11:30:00;;;;;;;12.07;3.97;;;21.50;99.90;;;;;;5054529;28;20128;-68
2022/08/26 11:32:54;;;;;;;9.45;3.20;;;21.60;99.90;;;;;;5054431;28;20043;-68
2022/08/26 11:35:20;;;;;;;6.95;3.03;;;21.50;99.90;;;;;;5053364;28;20044;-68
2022/08/26 11:37:55;;;;;;;7.80;3.63;;;21.70;99.90;;;;;;5054407;28;20048;-68
2022/08/26 11:40:30;;;;;;;12.00;4.05;;;21.50;99.90;;;;;;5054673;28;20041;-68
2022/08/26 11:43:12;;;;;;;10.20;3.55;;;21.60;99.90;;;;;;5054688;28;20503;-68
2022/08/26 11:45:42;;;;;;;12.35;3.65;;;21.70;99.90;;;;;;5054677;28;20037;-68
2022/08/26 11:48:18;;;;;;;10.85;3.20;;;21.60;99.90;;;;;;5054141;28;20044;-68
2022/08/26 11:50:59;;;;;;;11.35;3.05;;;21.90;99.90;;;;;;5040963;28;20033;-68
2022/08/26 11:53:26;;;;;;;7.15;2.67;;;22.00;99.90;;;;;;5054578;28;20073;-68
2022/08/26 11:55:54;;;;;;;9.07;2.97;;;22.10;99.90;;;;;;5054508;28;20041;-68
2022/08/26 11:58:22;;;;;;;9.20;2.85;;;22.40;99.90;;;;;;5053348;28;20036;-68
2022/08/26 12:00:58;;;;;;;7.28;2.85;;;22.30;99.90;;;;;;5053908;28;20380;-68
2022/08/26 12:03:37;;;;;;;8.35;2.47;;;22.30;99.90;;;;;;5054255;28;20465;-68
2022/08/26 12:06:13;;;;;;;9.95;2.35;;;22.40;99.90;;;;;;5054211;28;20036;-68
2022/08/26 12:08:42;;;;;;;6.85;3.30;;;22.40;99.90;;;;;;5054256;28;20059;-68
2022/08/26 12:11:17;;;;;;;9.93;2.67;;;22.40;99.90;;;;;;5053876;28;20071;-68
2022/08/26 12:13:56;;;;;;;10.23;2.63;;;22.10;99.90;;;;;;5053959;28;20045;-68
2022/08/26 12:16:24;;;;;;;6.18;2.70;;;22.30;99.90;;;;;;5053999;28;20049;-68
2022/08/26 12:18:50;;;;;;;7.43;2.47;;;22.30;99.90;;;;;;5052681;28;20045;-68
2022/08/26 12:21:21;;;;;;;10.05;3.33;;;22.50;99.90;;;;;;5053715;28;20029;-68
2022/08/26 12:23:50;;;;;;;12.88;3.17;;;22.60;99.90;;;;;;5053876;28;20040;-68
2022/08/26 12:26:21;;;;;;;7.43;2.40;;;22.60;99.90;;;;;;5053980;28;20041;-68
2022/08/26 12:28:54;;;;;;;16.90;3.35;;;22.50;99.90;;;;;;5053429;28;20041;-67
2022/08/26 12:31:25;;;;;;;9.23;2.65;;;22.40;99.90;;;;;;5052351;28;20037;-68
2022/08/26 12:33:52;;;;;;;8.60;2.55;;;22.40;99.90;;;;;;5053480;28;20495;-67
2022/08/26 12:36:30;;;;;;;8.60;3.20;;;22.30;99.90;;;;;;5053575;28;20075;-67
2022/08/26 12:39:16;;;;;;;8.23;2.95;;;22.10;99.90;;;;;;5053875;28;20071;-68
2022/08/26 12:41:49;;;;;;;7.72;2.70;;;22.10;99.90;;;;;;5053691;28;20036;-68
2022/08/26 12:44:33;;;;;;;6.28;2.72;;;22.00;99.90;;;;;;5053460;28;20047;-67
2022/08/26 12:47:21;;;;;;;8.68;2.42;;;21.90;99.90;;;;;;5053319;28;20499;-68
2022/08/26 12:49:56;;;;;;;4.20;2.33;;;21.90;99.90;;;;;;5052013;28;20049;-67
2022/08/26 12:52:30;;;;;;;6.38;2.25;;;21.60;99.90;;;;;;5053396;28;20044;-68